Los Angeles, California
Current Conditions -  °F | °C
As of 7:47 PM on Monday 22 Dec 2014 (Local Time) from KCQT Reporting Station
Haze Haze  
Wind Chill: 15°   Ceiling: Unl
Heat Index: 15°   Visibility: 4mi
Dew Point: 13°   Wind: 0mph
Humidity: 87%   Direction: NA
Pressure: 29.98"   Gusts: NA
Location:  34.05°N, 118.24°W
Report Text: KCQT 230347Z AUTO 00000KT 4SM BR CLR 15/13 A2998 RMK AO2 SLP151 T01500128
Loading
Personal Weather Stations






























Interactive Weather Map New forecast layout! Learn more

10-Day Weather Forecast

Advertisements
Track Severe Weather on mobile